createdAt,value
2023-04-17T00:01:42.657Z,70.78
2023-04-17T00:04:11.601Z,71.31
2023-04-17T00:06:40.167Z,71.55
2023-04-17T00:09:08.090Z,72.17
2023-04-17T00:11:36.033Z,72.16
2023-04-17T00:14:03.878Z,71.54
2023-04-17T00:16:31.853Z,71.60
2023-04-17T00:19:01.154Z,72.79
2023-04-17T00:21:29.999Z,72.47
2023-04-17T00:23:58.231Z,73.31
2023-04-17T00:26:26.248Z,72.91
2023-04-17T00:28:54.272Z,73.10
2023-04-17T00:31:22.298Z,73.91
2023-04-17T00:33:50.437Z,73.34
2023-04-17T00:36:19.712Z,74.27
2023-04-17T00:38:47.641Z,74.55
2023-04-17T00:41:15.744Z,74.55
2023-04-17T00:43:43.732Z,75.30
2023-04-17T00:46:13.135Z,74.79
2023-04-17T00:48:41.601Z,75.81
2023-04-17T00:51:09.599Z,74.83
2023-04-17T00:53:39.188Z,75.73
2023-04-17T00:56:08.252Z,75.86
2023-04-17T00:58:38.347Z,76.01
2023-04-17T01:01:06.345Z,80.06
2023-04-17T01:03:34.893Z,77.56
2023-04-17T01:06:03.660Z,77.13
2023-04-17T01:08:42.409Z,77.56
2023-04-17T01:11:10.747Z,77.66
2023-04-17T01:13:46.368Z,78.46
2023-04-17T01:16:14.385Z,77.99
2023-04-17T01:18:42.370Z,78.65
2023-04-17T01:21:10.413Z,78.49
2023-04-17T01:23:47.003Z,78.80
2023-04-17T01:26:20.428Z,78.99
2023-04-17T01:28:53.060Z,79.22
2023-04-17T01:31:21.408Z,79.76
2023-04-17T01:33:49.594Z,79.57
2023-04-17T01:36:17.844Z,79.56
2023-04-17T01:38:46.173Z,79.91
2023-04-17T01:41:14.063Z,79.84
2023-04-17T01:43:44.973Z,80.17
2023-04-17T01:46:13.256Z,80.86
2023-04-17T01:48:41.753Z,80.78
2023-04-17T01:51:09.717Z,80.51
2023-04-17T01:53:39.104Z,81.85
2023-04-17T01:58:19.673Z,82.96
2023-04-17T02:00:47.613Z,82.79
2023-04-17T02:03:15.955Z,82.21
2023-04-17T02:05:47.163Z,82.49
2023-04-17T02:08:15.258Z,82.64
2023-04-17T02:10:43.314Z,83.64
2023-04-17T02:13:11.889Z,83.64
2023-04-17T02:15:41.397Z,83.58
2023-04-17T02:18:10.038Z,83.73
2023-04-17T02:20:39.063Z,83.33
2023-04-17T02:23:07.861Z,83.85
2023-04-17T02:25:36.230Z,84.40
2023-04-17T02:28:04.135Z,83.81
2023-04-17T02:30:32.054Z,84.06
2023-04-17T02:33:02.028Z,84.44
2023-04-17T02:35:34.104Z,84.79
2023-04-17T02:38:02.089Z,84.22
2023-04-17T02:40:30.081Z,84.71
2023-04-17T02:42:57.928Z,84.02
2023-04-17T02:45:25.830Z,84.37
2023-04-17T02:47:53.817Z,84.79
2023-04-17T02:50:23.301Z,84.94
2023-04-17T02:52:51.221Z,85.47
2023-04-17T02:55:19.360Z,85.47
2023-04-17T02:57:47.285Z,85.50
2023-04-17T03:00:15.668Z,84.83
2023-04-17T03:02:43.739Z,85.10
2023-04-17T03:05:15.345Z,86.67
2023-04-17T03:07:44.670Z,86.55
2023-04-17T03:10:13.500Z,86.32
2023-04-17T03:12:43.948Z,86.15
2023-04-17T03:15:12.536Z,86.93
2023-04-17T03:17:40.552Z,87.25
2023-04-17T03:20:10.048Z,88.03
2023-04-17T03:22:37.983Z,88.23
2023-04-17T03:25:08.287Z,87.67
2023-04-17T03:27:36.114Z,87.59
2023-04-17T03:30:04.111Z,87.41
2023-04-17T03:32:32.250Z,88.05
2023-04-17T03:35:00.215Z,87.70
2023-04-17T03:37:28.135Z,87.80
2023-04-17T03:39:56.128Z,88.08
2023-04-17T03:42:25.830Z,87.76
2023-04-17T03:44:53.684Z,87.75
2023-04-17T03:47:21.671Z,88.25
2023-04-17T03:49:49.677Z,88.81
2023-04-17T03:52:17.557Z,88.87
2023-04-17T03:54:45.730Z,88.65
2023-04-17T03:57:13.795Z,88.87
2023-04-17T03:59:43.086Z,89.51
2023-04-17T04:02:11.230Z,89.17
2023-04-17T04:04:39.357Z,89.11
2023-04-17T04:07:07.339Z,89.22
2023-04-17T04:09:35.198Z,89.46
2023-04-17T04:12:03.141Z,89.20
2023-04-17T04:14:31.095Z,89.09
2023-04-17T04:17:00.354Z,90.25
2023-04-17T04:19:28.335Z,91.73
2023-04-17T04:21:56.940Z,93.22
2023-04-17T04:24:25.608Z,92.34
2023-04-17T04:26:53.622Z,92.12
2023-04-17T04:29:25.608Z,91.19
2023-04-17T04:31:53.631Z,90.43
2023-04-17T04:34:25.375Z,87.54
2023-04-17T04:36:53.510Z,85.16
2023-04-17T04:39:21.673Z,81.25
2023-04-17T04:41:50.547Z,79.61
2023-04-17T04:44:19.001Z,76.62
2023-04-17T04:46:47.069Z,74.89
2023-04-17T04:49:15.134Z,78.61
2023-04-17T04:51:44.422Z,82.51
2023-04-17T04:54:12.339Z,86.48
2023-04-17T04:56:40.276Z,86.85
2023-04-17T04:59:08.292Z,88.32
2023-04-17T05:01:36.268Z,88.82
2023-04-17T05:04:04.563Z,89.91
2023-04-17T05:06:32.587Z,90.27
2023-04-17T05:09:01.820Z,90.25
2023-04-17T05:11:30.760Z,90.97
2023-04-17T05:13:58.712Z,91.43
2023-04-17T05:16:26.698Z,92.48
2023-04-17T05:18:54.724Z,92.18
2023-04-17T05:21:22.655Z,92.86
2023-04-17T05:23:50.499Z,92.98
2023-04-17T05:26:22.023Z,92.70
2023-04-17T05:28:49.975Z,91.35
2023-04-17T05:31:18.139Z,92.83
2023-04-17T05:33:46.100Z,92.36
2023-04-17T05:36:13.983Z,92.80
2023-04-17T05:38:43.070Z,92.86
2023-04-17T05:41:12.678Z,92.88
2023-04-17T05:43:42.738Z,91.56
2023-04-17T05:46:10.622Z,87.50
2023-04-17T05:48:38.568Z,85.52
2023-04-17T05:51:06.569Z,83.18
2023-04-17T05:53:36.069Z,82.90
2023-04-17T05:56:04.187Z,83.50
2023-04-17T05:58:32.243Z,82.66
2023-04-17T06:01:02.423Z,81.62
2023-04-17T06:03:30.415Z,84.53
2023-04-17T06:05:58.519Z,82.01
2023-04-17T06:08:26.603Z,81.50
2023-04-17T06:10:56.068Z,81.10
2023-04-17T06:13:24.511Z,81.25
2023-04-17T06:15:52.508Z,81.38
2023-04-17T06:18:21.694Z,80.67
2023-04-17T06:20:49.652Z,80.12
2023-04-17T06:23:17.560Z,80.92
2023-04-17T06:25:45.550Z,80.35
2023-04-17T06:28:13.393Z,79.21
2023-04-17T06:30:41.434Z,80.35
2023-04-17T06:33:09.379Z,78.57
2023-04-17T06:35:38.784Z,78.10
2023-04-17T06:38:06.626Z,78.77
2023-04-17T06:40:34.626Z,79.24
2023-04-17T06:43:02.544Z,79.35
2023-04-17T06:45:30.537Z,77.46
2023-04-17T06:47:58.491Z,77.27
2023-04-17T06:50:26.533Z,77.00
2023-04-17T06:52:55.805Z,78.04
2023-04-17T06:55:23.723Z,78.70
2023-04-17T06:57:51.648Z,79.19
2023-04-17T07:00:20.495Z,78.97
2023-04-17T07:02:48.555Z,77.39
2023-04-17T07:05:16.707Z,78.57
2023-04-17T07:07:44.860Z,77.50
2023-04-17T07:10:15.896Z,78.00
2023-04-17T07:12:43.917Z,76.25
2023-04-17T07:15:12.341Z,75.70
2023-04-17T07:17:40.344Z,76.12
2023-04-17T07:20:09.822Z,75.75
2023-04-17T07:22:37.729Z,75.42
2023-04-17T07:25:06.420Z,75.35
2023-04-17T07:27:36.480Z,74.68
2023-04-17T07:30:04.900Z,73.92
2023-04-17T07:32:33.544Z,73.65
2023-04-17T07:35:01.509Z,72.08
2023-04-17T07:37:29.489Z,72.52
2023-04-17T07:39:57.396Z,71.67
2023-04-17T07:42:25.458Z,70.08
2023-04-17T07:44:54.760Z,68.23
2023-04-17T07:47:24.054Z,68.27
2023-04-17T07:49:51.997Z,67.97
2023-04-17T07:52:19.858Z,67.45
2023-04-17T07:54:48.068Z,66.41
2023-04-17T07:57:18.100Z,65.71
2023-04-17T07:59:46.758Z,66.28
2023-04-17T08:02:16.862Z,65.62
2023-04-17T08:04:45.204Z,65.62
2023-04-17T08:07:14.496Z,65.67
2023-04-17T08:09:43.853Z,64.53
2023-04-17T08:12:12.131Z,63.85
2023-04-17T08:14:40.829Z,63.05
2023-04-17T08:17:09.011Z,61.99
2023-04-17T08:19:38.233Z,61.34
2023-04-17T08:22:07.312Z,61.07
2023-04-17T08:24:35.242Z,61.49
2023-04-17T08:27:07.930Z,61.20
2023-04-17T08:29:35.832Z,61.81
2023-04-17T08:32:13.943Z,60.79
2023-04-17T08:34:47.814Z,59.30
2023-04-17T08:37:15.690Z,59.47
2023-04-17T08:39:43.906Z,59.78
2023-04-17T08:42:16.761Z,59.71
2023-04-17T08:44:46.566Z,59.49
2023-04-17T08:47:16.523Z,59.50
2023-04-17T08:49:47.168Z,60.07
2023-04-17T08:52:15.061Z,58.67
2023-04-17T08:54:42.978Z,58.57
2023-04-17T08:57:10.931Z,58.03
2023-04-17T08:59:39.411Z,56.86
2023-04-17T09:02:08.753Z,55.06
2023-04-17T09:04:41.802Z,54.15
2023-04-17T09:07:15.685Z,52.21
2023-04-17T09:09:51.761Z,52.74
2023-04-17T09:12:20.086Z,54.09
2023-04-17T09:14:48.256Z,53.25
2023-04-17T09:17:18.337Z,54.40
2023-04-17T09:20:07.876Z,51.37
2023-04-17T09:22:39.305Z,52.70
2023-04-17T09:25:16.958Z,50.17
2023-04-17T09:27:45.024Z,51.93
2023-04-17T09:30:13.828Z,52.90
2023-04-17T09:32:41.853Z,53.20
2023-04-17T09:35:09.798Z,52.29
2023-04-17T09:37:52.252Z,51.68
2023-04-17T09:40:21.528Z,51.63
2023-04-17T09:42:57.890Z,49.93
2023-04-17T09:45:28.247Z,51.87
2023-04-17T09:47:56.749Z,47.16
2023-04-17T09:50:25.846Z,50.12
2023-04-17T09:52:56.416Z,49.27
2023-04-17T09:55:26.674Z,50.36
2023-04-17T09:57:56.089Z,51.07
2023-04-17T10:00:27.080Z,50.17
2023-04-17T10:02:57.058Z,49.78
2023-04-17T10:05:27.067Z,50.68
2023-04-17T10:07:57.250Z,49.46
2023-04-17T10:10:26.690Z,50.66
2023-04-17T10:12:57.330Z,48.72
2023-04-17T10:15:26.456Z,51.67
2023-04-17T10:17:56.323Z,50.27
2023-04-17T10:20:44.740Z,49.56
2023-04-17T10:23:34.136Z,49.02
2023-04-17T10:26:41.227Z,48.66
2023-04-17T10:29:09.112Z,50.91
2023-04-17T10:32:24.439Z,47.38
2023-04-17T10:34:53.342Z,48.62
2023-04-17T10:37:23.080Z,49.90
2023-04-17T10:40:02.861Z,48.12
2023-04-17T10:42:32.874Z,50.81
2023-04-17T10:45:04.919Z,50.68
2023-04-17T10:47:34.458Z,49.66
2023-04-17T10:50:05.463Z,50.70
2023-04-17T10:52:40.706Z,49.48
2023-04-17T10:55:14.438Z,49.12
2023-04-17T10:58:13.917Z,47.38
2023-04-17T11:00:52.596Z,48.32
2023-04-17T11:03:24.313Z,49.28
2023-04-17T11:05:52.547Z,48.75
2023-04-17T11:08:21.173Z,48.94
2023-04-17T11:10:55.037Z,48.50
2023-04-17T11:13:23.119Z,49.36
2023-04-17T11:15:52.003Z,49.27
2023-04-17T11:18:22.699Z,47.94
2023-04-17T11:20:51.249Z,48.06
2023-04-17T11:23:19.292Z,48.67
2023-04-17T11:25:47.361Z,48.09
2023-04-17T11:28:17.085Z,47.96
2023-04-17T11:30:45.548Z,48.66
2023-04-17T11:33:13.526Z,48.18
2023-04-17T11:35:44.600Z,48.03
2023-04-17T11:38:17.901Z,47.75
2023-04-17T11:40:47.991Z,48.07
2023-04-17T11:43:18.104Z,47.68
2023-04-17T11:45:48.429Z,47.82
2023-04-17T11:48:19.574Z,46.97
2023-04-17T11:50:47.468Z,47.40
2023-04-17T11:53:17.138Z,47.49
2023-04-17T11:55:45.851Z,47.82
2023-04-17T11:58:14.838Z,47.68
2023-04-17T12:00:44.205Z,48.17
2023-04-17T12:03:37.816Z,46.13
2023-04-17T12:06:09.010Z,48.24
2023-04-17T12:08:45.061Z,47.62
2023-04-17T12:11:18.097Z,47.29
2023-04-17T12:13:46.134Z,47.82
2023-04-17T12:16:15.683Z,47.32
2023-04-17T12:18:43.786Z,47.09
2023-04-17T12:21:11.661Z,47.03
2023-04-17T12:23:39.718Z,46.44
2023-04-17T12:26:07.690Z,46.98
2023-04-17T12:28:35.822Z,47.31
2023-04-17T12:31:04.624Z,45.99
2023-04-17T12:33:34.052Z,46.76
2023-04-17T12:36:03.103Z,46.08
2023-04-17T12:38:31.365Z,46.89
2023-04-17T12:40:59.444Z,46.54
2023-04-17T12:43:27.365Z,46.64
2023-04-17T12:45:55.249Z,46.52
2023-04-17T12:48:23.207Z,47.36
2023-04-17T12:50:52.551Z,47.16
2023-04-17T12:53:20.415Z,45.82
2023-04-17T12:55:48.453Z,46.13
2023-04-17T12:58:16.510Z,46.11
2023-04-17T13:00:44.677Z,45.97
2023-04-17T13:03:12.796Z,46.24
2023-04-17T13:05:40.884Z,46.57
2023-04-17T13:08:14.965Z,46.54
2023-04-17T13:10:42.923Z,46.67
2023-04-17T13:13:11.063Z,45.50
2023-04-17T13:15:38.922Z,46.31
2023-04-17T13:18:08.144Z,46.46
2023-04-17T13:20:36.287Z,46.21
2023-04-17T13:23:04.131Z,45.47
2023-04-17T13:25:33.966Z,45.39
2023-04-17T13:28:01.913Z,45.48
2023-04-17T13:30:29.803Z,46.13
2023-04-17T13:32:57.683Z,44.38
2023-04-17T13:35:25.564Z,44.49
2023-04-17T13:37:54.992Z,45.53
2023-04-17T13:40:22.965Z,44.94
2023-04-17T13:42:54.672Z,45.51
2023-04-17T13:45:24.887Z,45.93
2023-04-17T13:47:52.822Z,45.17
2023-04-17T13:50:20.722Z,45.49
2023-04-17T13:52:48.857Z,46.33
2023-04-17T13:55:17.379Z,47.01
2023-04-17T13:57:45.433Z,46.94
2023-04-17T14:00:16.116Z,46.66
2023-04-17T14:02:44.087Z,47.42
2023-04-17T14:05:12.292Z,48.17
2023-04-17T14:07:40.323Z,48.26
2023-04-17T14:10:09.960Z,48.30
2023-04-17T14:12:37.872Z,48.16
2023-04-17T14:15:07.446Z,48.21
2023-04-17T14:17:38.275Z,49.02
2023-04-17T14:20:07.258Z,48.35
2023-04-17T14:22:35.212Z,48.96
2023-04-17T14:25:03.157Z,49.29
2023-04-17T14:27:31.337Z,49.31
2023-04-17T14:30:01.188Z,49.69
2023-04-17T14:32:29.577Z,48.84
2023-04-17T14:34:59.447Z,48.64
2023-04-17T14:37:27.504Z,48.93
2023-04-17T14:39:55.613Z,48.50
2023-04-17T14:42:23.513Z,48.63
2023-04-17T14:44:51.358Z,49.05
2023-04-17T14:47:19.640Z,49.54
2023-04-17T14:49:47.508Z,48.67
2023-04-17T14:52:17.007Z,48.61
2023-04-17T14:54:44.927Z,48.50
2023-04-17T14:57:12.995Z,48.37
2023-04-17T14:59:41.835Z,48.95
2023-04-17T15:02:10.601Z,48.27
2023-04-17T15:04:39.049Z,48.48
2023-04-17T15:07:07.050Z,48.67
2023-04-17T15:09:36.271Z,48.73
2023-04-17T15:12:04.218Z,48.57
2023-04-17T15:14:32.065Z,48.52
2023-04-17T15:17:02.346Z,48.78
2023-04-17T15:19:30.158Z,47.38
2023-04-17T15:21:58.087Z,48.55
2023-04-17T15:24:26.058Z,48.23
2023-04-17T15:26:55.619Z,48.54
2023-04-17T15:29:23.449Z,48.50
2023-04-17T15:31:52.641Z,48.05
2023-04-17T15:34:20.871Z,47.87
2023-04-17T15:36:48.860Z,48.33
2023-04-17T15:39:16.809Z,47.73
2023-04-17T15:41:44.718Z,47.43
2023-04-17T15:44:13.896Z,48.10
2023-04-17T15:46:41.927Z,48.36
2023-04-17T15:49:09.954Z,47.84
2023-04-17T15:51:39.632Z,48.09
2023-04-17T15:54:11.844Z,48.21
2023-04-17T15:56:39.759Z,47.96
2023-04-17T15:59:07.616Z,48.75
2023-04-17T16:01:36.939Z,49.02
2023-04-17T16:04:05.607Z,48.81
2023-04-17T16:06:34.106Z,49.56
2023-04-17T16:09:03.528Z,49.26
2023-04-17T16:11:31.497Z,49.95
2023-04-17T16:13:59.410Z,50.35
2023-04-17T16:16:29.389Z,50.14
2023-04-17T16:18:58.963Z,50.41
2023-04-17T16:21:27.382Z,50.44
2023-04-17T16:23:57.353Z,50.30
2023-04-17T16:26:25.483Z,51.19
2023-04-17T16:28:53.365Z,50.51
2023-04-17T16:31:22.702Z,51.04
2023-04-17T16:33:50.864Z,50.91
2023-04-17T16:36:20.290Z,52.52
2023-04-17T16:38:48.126Z,52.22
2023-04-17T16:41:16.237Z,53.29
2023-04-17T16:43:44.154Z,53.55
2023-04-17T16:46:24.098Z,53.60
2023-04-17T16:49:00.366Z,54.30
2023-04-17T16:51:29.842Z,54.45
2023-04-17T16:53:57.793Z,53.87
2023-04-17T16:56:25.828Z,54.96
2023-04-17T16:58:53.733Z,54.78
2023-04-17T17:01:21.718Z,55.05
2023-04-17T17:03:50.461Z,56.33
2023-04-17T17:06:18.406Z,56.36
2023-04-17T17:08:48.021Z,56.71
2023-04-17T17:11:16.073Z,57.36
2023-04-17T17:13:46.697Z,56.98
2023-04-17T17:16:15.120Z,56.52
2023-04-17T17:18:42.976Z,56.87
2023-04-17T17:21:11.032Z,58.53
2023-04-17T17:23:39.024Z,57.99
2023-04-17T17:26:08.469Z,58.71
2023-04-17T17:28:36.577Z,57.72
2023-04-17T17:31:07.377Z,58.81
2023-04-17T17:33:36.133Z,59.39
2023-04-17T17:36:04.482Z,58.87
2023-04-17T17:38:32.771Z,59.24
2023-04-17T17:41:00.978Z,59.19
2023-04-17T17:43:30.311Z,60.58
2023-04-17T17:45:58.260Z,60.84
2023-04-17T17:48:26.377Z,60.45
2023-04-17T17:50:55.525Z,60.76
2023-04-17T17:53:26.362Z,60.52
2023-04-17T17:55:56.621Z,61.42
2023-04-17T17:58:25.433Z,60.49
2023-04-17T18:00:54.670Z,61.25
2023-04-17T18:03:22.688Z,60.95
2023-04-17T18:05:52.704Z,61.15
2023-04-17T18:08:20.791Z,61.93
2023-04-17T18:10:48.667Z,61.43
2023-04-17T18:13:16.516Z,62.19
2023-04-17T18:15:44.429Z,61.74
2023-04-17T18:18:13.793Z,62.78
2023-04-17T18:20:41.769Z,62.61
2023-04-17T18:23:09.683Z,63.21
2023-04-17T18:25:39.082Z,63.79
2023-04-17T18:28:07.627Z,63.72
2023-04-17T18:30:35.614Z,63.25
2023-04-17T18:33:03.582Z,63.83
2023-04-17T18:35:33.047Z,63.76
2023-04-17T18:38:00.936Z,64.01
2023-04-17T18:40:28.907Z,64.37
2023-04-17T18:42:56.869Z,64.63
2023-04-17T18:45:24.797Z,64.65
2023-04-17T18:47:52.804Z,64.66
2023-04-17T18:50:20.933Z,65.13
2023-04-17T18:52:51.286Z,65.48
2023-04-17T18:55:19.477Z,65.57
2023-04-17T18:57:47.419Z,66.14
2023-04-17T19:00:15.849Z,65.71
2023-04-17T19:02:43.946Z,65.62
2023-04-17T19:05:11.942Z,66.12
2023-04-17T19:07:39.843Z,66.49
2023-04-17T19:10:10.348Z,66.86
2023-04-17T19:12:38.466Z,66.77
2023-04-17T19:15:07.563Z,66.23
2023-04-17T19:17:35.576Z,67.15
2023-04-17T19:20:03.689Z,66.91
2023-04-17T19:22:31.585Z,66.88
2023-04-17T19:25:00.679Z,67.07
2023-04-17T19:27:29.966Z,67.62
2023-04-17T19:29:58.332Z,66.67
2023-04-17T19:32:26.280Z,67.16
2023-04-17T19:34:54.204Z,68.03
2023-04-17T19:37:22.053Z,67.26
2023-04-17T19:39:50.703Z,67.99
2023-04-17T19:42:19.498Z,67.78
2023-04-17T19:44:48.824Z,67.79
2023-04-17T19:47:16.772Z,68.40
2023-04-17T19:49:44.874Z,68.16
2023-04-17T19:52:12.988Z,67.74
2023-04-17T19:54:42.840Z,68.44
2023-04-17T19:57:10.825Z,68.03
2023-04-17T19:59:38.696Z,67.93
2023-04-17T20:02:08.169Z,67.74
2023-04-17T20:04:36.122Z,69.20
2023-04-17T20:07:04.061Z,68.12
2023-04-17T20:09:32.504Z,68.08
2023-04-17T20:12:00.691Z,69.89
2023-04-17T20:14:28.671Z,69.27
2023-04-17T20:16:56.655Z,69.29
2023-04-17T20:19:26.249Z,69.98
2023-04-17T20:21:54.200Z,68.57
2023-04-17T20:24:22.055Z,69.38
2023-04-17T20:26:49.920Z,68.90
2023-04-17T20:29:17.833Z,69.76
2023-04-17T20:31:45.934Z,69.87
2023-04-17T20:34:13.876Z,69.71
2023-04-17T20:36:43.258Z,70.05
2023-04-17T20:39:12.757Z,70.47
2023-04-17T20:41:41.760Z,70.42
2023-04-17T20:44:10.036Z,71.46
2023-04-17T20:46:38.047Z,70.45
2023-04-17T20:49:05.910Z,70.94
2023-04-17T20:51:33.917Z,71.02
2023-04-17T20:54:03.205Z,71.93
2023-04-17T20:56:31.047Z,72.19
2023-04-17T20:58:58.898Z,71.51
2023-04-17T21:01:26.785Z,72.30
2023-04-17T21:03:54.827Z,71.89
2023-04-17T21:06:23.079Z,72.70
2023-04-17T21:08:51.024Z,71.98
2023-04-17T21:11:21.489Z,73.04
2023-04-17T21:13:49.477Z,72.48
2023-04-17T21:16:17.438Z,72.92
2023-04-17T21:18:46.078Z,73.62
2023-04-17T21:21:13.965Z,72.83
2023-04-17T21:23:41.774Z,72.98
2023-04-17T21:26:09.796Z,73.81
2023-04-17T21:28:39.042Z,73.11
2023-04-17T21:31:09.880Z,73.38
2023-04-17T21:33:37.871Z,73.52
2023-04-17T21:36:05.973Z,73.62
2023-04-17T21:38:33.942Z,74.01
2023-04-17T21:41:01.844Z,73.76
2023-04-17T21:43:31.028Z,74.16
2023-04-17T21:46:00.450Z,74.37
2023-04-17T21:48:28.576Z,74.54
2023-04-17T21:51:01.770Z,75.03
2023-04-17T21:53:29.850Z,75.09
2023-04-17T21:55:57.701Z,75.36
2023-04-17T21:58:25.644Z,75.79
2023-04-17T22:00:53.657Z,75.84
2023-04-17T22:03:23.780Z,76.04
2023-04-17T22:05:53.760Z,76.39
2023-04-17T22:08:21.611Z,76.62
2023-04-17T22:10:49.488Z,76.70
2023-04-17T22:13:17.309Z,76.76
2023-04-17T22:15:46.052Z,76.95
2023-04-17T22:18:13.929Z,76.78
2023-04-17T22:20:43.284Z,77.48
2023-04-17T22:23:11.097Z,77.81
2023-04-17T22:25:38.899Z,77.29
2023-04-17T22:28:07.392Z,77.49
2023-04-17T22:30:35.442Z,77.96
2023-04-17T22:33:03.455Z,78.35
2023-04-17T22:35:31.410Z,77.96
2023-04-17T22:38:00.740Z,78.68
2023-04-17T22:40:29.948Z,79.25
2023-04-17T22:42:58.030Z,79.07
2023-04-17T22:45:25.945Z,79.30
2023-04-17T22:47:53.913Z,80.03
2023-04-17T22:50:21.857Z,80.27
2023-04-17T22:52:49.781Z,81.12
2023-04-17T22:55:19.419Z,81.16
2023-04-17T22:57:47.261Z,81.16
2023-04-17T23:00:16.067Z,82.06
2023-04-17T23:02:43.988Z,81.95
2023-04-17T23:05:11.958Z,82.47
2023-04-17T23:07:40.123Z,82.50
2023-04-17T23:10:08.777Z,83.10
2023-04-17T23:12:38.046Z,82.82
2023-04-17T23:15:08.283Z,83.38
2023-04-17T23:17:36.243Z,84.13
2023-04-17T23:20:04.790Z,82.92
2023-04-17T23:22:32.666Z,83.41
2023-04-17T23:25:00.584Z,84.24
2023-04-17T23:27:28.464Z,84.23
2023-04-17T23:29:58.879Z,83.28
2023-04-17T23:32:27.008Z,83.08
2023-04-17T23:34:55.068Z,83.71
2023-04-17T23:37:22.988Z,83.76
2023-04-17T23:39:50.950Z,83.81
2023-04-17T23:42:18.894Z,83.63
2023-04-17T23:44:46.765Z,83.63
2023-04-17T23:47:16.164Z,83.50
2023-04-17T23:49:46.392Z,83.38
2023-04-17T23:52:14.097Z,88.11
2023-04-17T23:54:42.289Z,85.43
2023-04-17T23:57:10.240Z,86.22
2023-04-17T23:59:38.067Z,85.69
